KAUS/AUS METAR and TAF weather

Enter ICAO airport designator
Station Type Date Time Source
KAUS METAR 2019/08/24 20:53 UTC NOAA

KAUS 242053Z 00000KT 10SM FEW050 SCT150 SCT250 36/22 A2984 RMK AO2 SLP090 T03560222 58025


Station Type Date Time Source
KAUS Decoded METAR 2019/08/24 20:53 UTC NOAA

Station name not available
Aug 24, 2019 - 04:53 PM EDT / 2019.08.24 2053 UTC
Wind: Calm:0
Visibility: 10 mile(s):0
Sky conditions: partly cloudy
Temperature: 96.1 F (35.6 C)
Heat index: 104.9 F (40.5 C):1
Dew Point: 72.0 F (22.2 C)
Relative Humidity: 46%
Pressure (altimeter): 29.84 in. Hg (1010 hPa)
Pressure tendency: 0.07 inches (2.5 hPa) lower than three hours ago
ob: KAUS 242053Z 00000KT 10SM FEW050 SCT150 SCT250 36/22 A2984 RMK AO2 SLP090 T03560222 58025
cycle: 21

Station Type Date Time Source
KAUS TAF 2019/08/24 18:42 UTC NOAA

TAF KAUS 241738Z 2418/2524 VRB04KT P6SM SCT035 BKN150 BKN250
FM242200 12006KT P6SM VCTS SCT060CB BKN250
FM250200 VRB03KT P6SM FEW015 BKN100
FM251800 17007KT P6SM SCT070

Example: see airport list